Time;durP1;ratioP1;P1;durP2;ratioP2;P2;SDS_P1;SDS_P2;PMS_P1;PMS_P2;Temp;Humidity;BMP_temperature;BMP_pressure;BME280_temperature;BME280_humidity;BME280_pressure;Samples;Min_cycle;Max_cycle;Signal;HPM_P1;HPM_P2
2022/06/12 00:02:24;;;;;;;12.53;11.63;;;;;;;16.04;100.00;92637.38;5031751;28;20222;-79
2022/06/12 00:04:50;;;;;;;12.20;11.50;;;;;;;15.83;100.00;92633.81;5030420;28;20175;-79
2022/06/12 00:07:15;;;;;;;13.03;12.23;;;;;;;15.74;100.00;92638.28;5031214;28;20234;-79
2022/06/12 00:09:41;;;;;;;11.97;11.07;;;;;;;15.80;100.00;92629.16;5032478;28;20190;-79
2022/06/12 00:12:06;;;;;;;13.50;12.60;;;;;;;15.78;100.00;92647.91;5032507;28;20246;-80
2022/06/12 00:14:32;;;;;;;12.30;11.40;;;;;;;15.96;100.00;92661.84;5032516;28;20179;-79
2022/06/12 00:16:57;;;;;;;12.33;11.53;;;;;;;15.95;100.00;92647.16;5032110;28;20231;-79
2022/06/12 00:19:23;;;;;;;12.57;11.67;;;;;;;15.81;100.00;92638.63;5031462;28;20183;-80
2022/06/12 00:21:49;;;;;;;12.80;11.90;;;;;;;16.06;100.00;92659.69;5031066;28;20223;-79
2022/06/12 00:24:17;;;;;;;12.83;11.83;;;;;;;15.89;100.00;92651.78;5032044;28;20191;-79
2022/06/12 00:26:46;;;;;;;13.43;12.47;;;;;;;15.85;100.00;92652.72;5032130;28;20219;-80
2022/06/12 00:29:28;;;;;;;12.13;11.23;;;;;;;15.69;100.00;92625.28;5031541;28;20214;-80
2022/06/12 00:32:01;;;;;;;12.33;11.53;;;;;;;15.74;100.00;92638.28;5031799;28;20229;-79
2022/06/12 00:34:31;;;;;;;13.13;12.13;;;;;;;15.85;100.00;92645.59;5039511;28;20203;-79
2022/06/12 00:36:57;;;;;;;12.30;11.50;;;;;;;15.99;100.00;92645.44;5031129;28;20236;-79
2022/06/12 00:39:24;;;;;;;13.50;12.30;;;;;;;15.87;100.00;92626.84;5030507;28;20163;-80
2022/06/12 00:41:53;;;;;;;13.87;12.80;;;;;;;16.00;100.00;92653.03;5031442;28;20246;-79
2022/06/12 00:44:24;;;;;;;12.60;11.60;;;;;;;16.02;100.00;92655.34;5032047;28;20175;-79
2022/06/12 00:46:52;;;;;;;14.33;13.33;;;;;;;15.94;100.00;92648.22;5031129;28;20241;-80
2022/06/12 00:49:22;;;;;;;12.07;11.27;;;;;;;15.90;100.00;92652.56;5030181;28;20218;-80
2022/06/12 00:51:51;;;;;;;12.80;12.07;;;;;;;15.92;100.00;92639.88;5030681;28;20245;-80
2022/06/12 00:54:18;;;;;;;12.50;11.60;;;;;;;15.89;100.00;92645.75;5031807;28;20202;-79
2022/06/12 00:56:47;;;;;;;12.40;11.60;;;;;;;15.93;100.00;92641.41;5030936;28;20222;-79
2022/06/12 00:59:37;;;;;;;14.37;13.27;;;;;;;15.90;100.00;92640.19;5031633;28;20189;-80
2022/06/12 01:02:05;;;;;;;12.90;12.00;;;;;;;15.96;100.00;92630.25;5029552;28;20228;-80
2022/06/12 01:07:25;;;;;;;12.83;11.90;;;;;;;15.73;100.00;92631.50;5031390;28;20234;-79
2022/06/12 01:09:53;;;;;;;14.23;12.83;;;;;;;15.78;100.00;92618.19;5030864;28;20194;-80
2022/06/12 01:12:24;;;;;;;13.57;12.57;;;;;;;15.82;100.00;92629.63;5030544;28;20223;-79
2022/06/12 01:14:55;;;;;;;14.23;13.23;;;;;;;15.63;100.00;92621.25;5031012;28;20716;-79
2022/06/12 01:17:23;;;;;;;13.60;12.40;;;;;;;15.65;100.00;92609.34;5030224;28;20237;-79
2022/06/12 01:19:56;;;;;;;13.03;12.00;;;;;;;15.72;100.00;92608.91;5030290;28;20242;-79
2022/06/12 01:22:43;;;;;;;12.23;11.43;;;;;;;15.92;100.00;92627.47;5030746;28;20253;-79
2022/06/12 01:25:28;;;;;;;13.53;12.30;;;;;;;15.68;100.00;92624.53;5030503;28;20266;-82
2022/06/12 01:28:02;;;;;;;13.93;12.87;;;;;;;15.79;100.00;92619.72;5029891;28;20234;-78
2022/06/12 01:30:38;;;;;;;13.53;12.33;;;;;;;15.81;100.00;92620.94;5029926;28;20182;-78
2022/06/12 01:33:35;;;;;;;12.57;11.77;;;;;;;15.90;100.00;92613.84;5029098;28;20230;-78
2022/06/12 01:36:26;;;;;;;13.40;12.50;;;;;;;15.77;100.00;92608.72;5029174;28;20290;-78
2022/06/12 01:39:10;;;;;;;12.23;11.43;;;;;;;15.72;100.00;92608.91;5030940;28;20190;-78
2022/06/12 01:41:59;;;;;;;12.73;11.93;;;;;;;15.88;100.00;92615.22;5030386;28;20286;-78
2022/06/12 01:44:31;;;;;;;13.47;12.57;;;;;;;15.92;100.00;92616.94;5030392;28;20187;-78
2022/06/12 01:47:20;;;;;;;12.50;11.70;;;;;;;15.95;100.00;92618.94;5029761;28;20234;-78
2022/06/12 01:50:14;;;;;;;12.57;11.60;;;;;;;15.98;100.00;92612.28;5030438;28;20210;-78
2022/06/12 01:52:45;;;;;;;12.20;11.40;;;;;;;15.91;100.00;92609.34;5029276;28;20211;-78
2022/06/12 01:55:23;;;;;;;13.00;11.90;;;;;;;16.00;100.00;92623.28;5031041;28;20187;-78
2022/06/12 01:58:07;;;;;;;12.70;11.77;;;;;;;16.12;100.00;92623.44;5029965;28;20329;-78
2022/06/12 02:00:33;;;;;;;12.93;11.87;;;;;;;15.98;100.00;92628.09;5029891;28;20201;-78
2022/06/12 02:03:22;;;;;;;12.90;11.90;;;;;;;15.82;100.00;92601.47;5030575;28;20187;-78
2022/06/12 02:06:02;;;;;;;12.90;12.07;;;;;;;16.01;100.00;92622.19;5030281;28;20234;-78
2022/06/12 02:08:40;;;;;;;12.07;11.03;;;;;;;16.03;100.00;92623.44;5031218;28;20234;-78
2022/06/12 02:14:04;;;;;;;12.77;11.90;;;;;;;16.08;100.00;92627.75;5030583;28;20728;-78
2022/06/12 02:16:37;;;;;;;13.27;12.17;;;;;;;16.09;100.00;92613.53;5030052;28;20222;-78
2022/06/12 02:19:15;;;;;;;12.73;11.83;;;;;;;15.99;100.00;92619.09;5029174;28;20178;-78
2022/06/12 02:21:57;;;;;;;12.97;12.10;;;;;;;15.98;100.00;92613.03;5029539;28;20218;-79
2022/06/12 02:24:29;;;;;;;12.00;11.20;;;;;;;15.92;100.00;92613.53;5029461;28;20252;-78
2022/06/12 02:27:00;;;;;;;13.33;12.33;;;;;;;15.88;100.00;92612.59;5029251;28;20241;-78
2022/06/12 02:29:35;;;;;;;12.83;11.93;;;;;;;15.86;100.00;92604.22;5029781;28;20228;-78
2022/06/12 02:32:23;;;;;;;12.90;12.03;;;;;;;15.69;100.00;92606.84;5029422;28;20298;-78
2022/06/12 02:35:06;;;;;;;12.17;11.37;;;;;;;15.60;100.00;92592.91;5029876;28;20760;-78
2022/06/12 02:37:41;;;;;;;11.77;11.00;;;;;;;15.75;100.00;92603.00;5028416;28;20222;-78
2022/06/12 02:40:15;;;;;;;12.73;11.67;;;;;;;15.73;100.00;92607.81;5029334;28;20193;-78
2022/06/12 02:42:44;;;;;;;13.50;12.60;;;;;;;15.62;100.00;92609.19;5025265;28;20273;-79
2022/06/12 02:45:25;;;;;;;13.87;12.87;;;;;;;15.52;100.00;92591.84;5030258;28;20238;-79
2022/06/12 02:47:51;;;;;;;13.20;12.30;;;;;;;15.62;100.00;92604.72;5027275;28;20279;-79
2022/06/12 02:50:22;;;;;;;12.40;11.60;;;;;;;15.61;100.00;92612.91;5029781;28;20194;-79
2022/06/12 02:53:10;;;;;;;13.17;12.30;;;;;;;15.68;100.00;92616.63;5028229;28;20206;-79
2022/06/12 02:55:47;;;;;;;12.07;11.07;;;;;;;15.49;100.00;92604.81;5029161;28;20242;-79
2022/06/12 02:58:25;;;;;;;13.47;12.50;;;;;;;15.57;100.00;92622.50;5028204;28;20186;-79
2022/06/12 03:01:07;;;;;;;14.23;13.23;;;;;;;15.57;100.00;92620.63;5028763;28;20230;-79
2022/06/12 03:03:51;;;;;;;13.13;12.23;;;;;;;15.55;100.00;92627.28;5029691;28;20191;-78
2022/06/12 03:06:18;;;;;;;13.50;12.63;;;;;;;15.60;100.00;92616.59;5028526;28;20226;-79
2022/06/12 03:08:49;;;;;;;11.97;11.30;;;;;;;15.41;100.00;92608.25;5028820;28;20249;-80
2022/06/12 03:11:31;;;;;;;13.20;12.30;;;;;;;15.60;100.00;92627.13;5029546;28;20238;-79
2022/06/12 03:13:57;;;;;;;13.50;12.60;;;;;;;15.51;100.00;92613.97;5027555;28;20618;-79
2022/06/12 03:16:31;;;;;;;11.80;11.10;;;;;;;15.64;100.00;92617.56;5028162;28;20242;-79
2022/06/12 03:19:05;;;;;;;13.33;12.33;;;;;;;15.68;100.00;92623.75;5028184;28;20190;-78
2022/06/12 03:21:39;;;;;;;13.90;12.03;;;;;;;15.72;100.00;92629.94;5027933;28;20254;-79
2022/06/12 03:24:41;;;;;;;12.23;11.40;;;;;;;15.63;100.00;92631.78;5028559;28;20183;-78
2022/06/12 03:27:35;;;;;;;12.93;11.90;;;;;;;15.63;100.00;92629.16;5026700;28;20253;-78
2022/06/12 03:30:06;;;;;;;12.77;11.90;;;;;;;15.69;100.00;92626.06;5029066;28;20198;-78
2022/06/12 03:32:32;;;;;;;13.27;12.37;;;;;;;15.64;100.00;92626.22;5028211;28;20282;-79
2022/06/12 03:35:46;;;;;;;13.00;12.10;;;;;;;15.62;100.00;92619.72;5028115;28;20167;-77
2022/06/12 03:38:20;;;;;;;11.97;10.80;;;;;;;15.84;100.00;92628.22;4972705;28;20219;-75
2022/06/12 03:41:02;;;;;;;12.57;11.77;;;;;;;15.97;100.00;92621.25;5024626;28;20730;-75
2022/06/12 03:43:36;;;;;;;14.77;13.73;;;;;;;16.09;100.00;92624.81;5028227;28;20191;-77
2022/06/12 03:46:21;;;;;;;12.37;11.57;;;;;;;16.10;100.00;92630.88;5027453;28;20227;-72
2022/06/12 03:49:11;;;;;;;10.87;10.27;;;;;;;16.08;98.98;92633.03;5025435;28;20215;-70
2022/06/12 03:51:40;;;;;;;11.33;10.60;;;;;;;16.20;98.21;92630.56;5027644;28;20231;-69
2022/06/12 03:54:28;;;;;;;12.03;11.23;;;;;;;16.37;98.95;92625.28;5028289;28;20187;-69
2022/06/12 03:59:50;;;;;;;11.67;10.97;;;;;;;16.44;95.24;92630.84;5027895;28;20210;-73
2022/06/12 04:02:22;;;;;;;12.00;11.30;;;;;;;16.73;95.71;92625.66;5027034;28;20241;-74
2022/06/12 04:04:49;;;;;;;12.90;11.87;;;;;;;16.80;93.47;92631.22;5028253;28;20190;-74
2022/06/12 04:07:16;;;;;;;10.70;10.03;;;;;;;16.95;93.13;92635.97;5028460;28;20218;-75
2022/06/12 04:09:49;;;;;;;11.20;10.50;;;;;;;16.94;92.20;92634.44;5027534;28;20209;-72
2022/06/12 04:12:22;;;;;;;12.10;11.30;;;;;;;16.78;92.15;92633.41;5027586;28;20210;-72
2022/06/12 04:15:00;;;;;;;13.07;12.17;;;;;;;16.88;92.91;92629.66;5028774;28;20234;-75
2022/06/12 04:17:25;;;;;;;12.57;11.37;;;;;;;16.91;93.77;92629.00;5032476;28;20265;-74
2022/06/12 04:20:00;;;;;;;12.10;11.30;;;;;;;16.43;94.44;92634.56;5032701;28;20175;-73
2022/06/12 04:22:50;;;;;;;11.57;10.97;;;;;;;16.85;94.93;92640.81;5032641;28;20297;-73
2022/06/12 04:25:44;;;;;;;12.10;11.30;;;;;;;16.63;95.90;92641.03;5023797;28;20202;-73
2022/06/12 04:28:33;;;;;;;12.33;11.60;;;;;;;16.47;96.75;92651.31;5021456;28;20245;-74
2022/06/12 04:31:02;;;;;;;13.33;12.33;;;;;;;16.39;96.65;92638.13;5030973;28;20234;-73
2022/06/12 04:34:10;;;;;;;12.93;12.13;;;;;;;16.18;97.70;92645.91;5032625;28;20281;-70
2022/06/12 04:36:35;;;;;;;12.23;11.27;;;;;;;16.35;97.43;92653.78;5033587;28;20239;-72
2022/06/12 04:39:02;;;;;;;13.20;12.30;;;;;;;16.39;97.40;92661.84;5030492;28;20179;-72
2022/06/12 04:41:31;;;;;;;13.60;12.70;;;;;;;16.31;99.56;92639.66;5030720;28;20234;-73
2022/06/12 04:43:56;;;;;;;12.53;11.63;;;;;;;16.23;97.39;92629.94;5031552;28;20171;-81
2022/06/12 04:46:22;;;;;;;13.57;12.60;;;;;;;16.35;96.87;92637.97;5030771;28;20938;-78
2022/06/12 04:48:50;;;;;;;12.33;11.53;;;;;;;16.46;95.56;92647.13;5030429;28;20220;-78
2022/06/12 04:51:17;;;;;;;14.13;13.10;;;;;;;16.05;96.25;92621.28;5030064;28;20222;-79
2022/06/12 04:53:44;;;;;;;14.30;13.07;;;;;;;16.25;97.13;92645.44;5028523;28;20191;-78
2022/06/12 04:56:10;;;;;;;12.53;11.73;;;;;;;16.40;97.46;92658.13;5028926;28;20219;-79
2022/06/12 04:58:38;;;;;;;13.30;12.47;;;;;;;16.46;96.37;92655.03;5031121;28;20258;-78
2022/06/12 05:01:04;;;;;;;15.23;14.07;;;;;;;16.34;96.34;92648.81;5015469;28;20228;-78
2022/06/12 05:03:30;;;;;;;13.33;12.17;;;;;;;16.61;95.68;92661.66;5006728;28;20183;-79
2022/06/12 05:05:55;;;;;;;13.93;12.90;;;;;;;16.58;95.97;92655.16;5012496;28;20292;-77
2022/06/12 05:08:21;;;;;;;11.97;11.27;;;;;;;16.72;93.66;92671.56;5029127;28;20334;-78
2022/06/12 05:10:47;;;;;;;13.70;12.80;;;;;;;16.76;94.31;92669.84;5028973;28;20252;-78
2022/06/12 05:13:13;;;;;;;13.13;12.10;;;;;;;16.53;93.36;92675.66;5028827;28;20190;-78
2022/06/12 05:15:39;;;;;;;12.83;11.83;;;;;;;16.90;93.58;92680.22;5030360;28;20237;-78
2022/06/12 05:18:07;;;;;;;13.37;12.37;;;;;;;16.75;93.44;92668.31;5030762;28;20194;-78
2022/06/12 05:20:34;;;;;;;13.17;12.27;;;;;;;16.62;93.73;92671.91;5031257;28;20258;-78
2022/06/12 05:23:00;;;;;;;13.57;12.63;;;;;;;16.86;92.67;92651.06;5030819;28;20248;-78
2022/06/12 05:25:25;;;;;;;12.53;11.70;;;;;;;17.25;92.20;92676.34;5030068;28;20175;-78
2022/06/12 05:27:52;;;;;;;13.20;12.20;;;;;;;17.21;92.78;92670.19;5029626;28;20207;-77
2022/06/12 05:30:22;;;;;;;12.60;11.70;;;;;;;17.10;90.63;92656.56;5030097;28;20258;-78
2022/06/12 05:32:50;;;;;;;12.53;11.80;;;;;;;17.67;88.42;92671.97;5029062;28;20183;-77
2022/06/12 05:35:15;;;;;;;12.87;12.07;;;;;;;18.01;86.16;92661.22;5030861;28;20275;-78
2022/06/12 05:37:41;;;;;;;11.67;10.90;;;;;;;17.84;86.25;92645.47;5030427;28;20183;-77
2022/06/12 05:40:13;;;;;;;12.33;11.53;;;;;;;17.76;86.09;92662.91;5030840;28;20195;-78
2022/06/12 05:42:39;;;;;;;11.23;10.63;;;;;;;17.97;84.70;92678.78;5029444;28;20207;-78
2022/06/12 05:45:06;;;;;;;11.90;11.00;;;;;;;18.24;85.74;92684.31;5030831;28;20190;-78
2022/06/12 05:47:32;;;;;;;11.00;10.30;;;;;;;17.86;85.53;92677.63;5028868;28;20258;-78
2022/06/12 05:49:58;;;;;;;12.07;11.27;;;;;;;18.47;84.38;92671.59;5029724;28;20189;-78
2022/06/12 05:52:24;;;;;;;11.63;10.90;;;;;;;18.48;82.31;92671.25;5028896;28;20209;-79
2022/06/12 05:54:49;;;;;;;12.47;10.30;;;;;;;18.77;82.60;92691.53;5030682;28;20179;-78
2022/06/12 05:57:14;;;;;;;10.53;9.90;;;;;;;18.56;83.17;92677.56;5030370;28;20250;-78
2022/06/12 05:59:40;;;;;;;11.50;10.80;;;;;;;18.43;84.58;92689.94;5030765;28;20175;-81
2022/06/12 06:02:06;;;;;;;12.13;11.17;;;;;;;18.16;84.82;92693.13;5030000;28;20225;-78
2022/06/12 06:04:32;;;;;;;11.83;11.00;;;;;;;18.21;85.98;92700.06;5030613;28;20181;-78
2022/06/12 06:06:59;;;;;;;10.90;10.20;;;;;;;17.81;86.03;92677.78;5029583;28;20254;-77
2022/06/12 06:09:26;;;;;;;11.77;10.87;;;;;;;17.85;84.44;92694.56;5030079;28;20235;-78
2022/06/12 06:11:52;;;;;;;12.43;11.27;;;;;;;17.91;85.69;92699.34;5028417;28;20258;-78
2022/06/12 06:14:17;;;;;;;11.47;10.77;;;;;;;17.52;86.73;92682.03;5029671;28;20179;-78
2022/06/12 06:16:44;;;;;;;10.13;9.63;;;;;;;17.90;86.72;92681.19;5028963;28;20789;-78
2022/06/12 06:19:11;;;;;;;11.00;10.37;;;;;;;18.00;86.28;92702.69;5029044;28;20201;-78
2022/06/12 06:21:37;;;;;;;12.03;10.90;;;;;;;17.69;86.40;92712.03;5029935;28;20234;-78
2022/06/12 06:24:02;;;;;;;11.60;10.87;;;;;;;17.84;86.43;92709.63;5029576;28;20196;-78
2022/06/12 06:26:28;;;;;;;11.60;10.80;;;;;;;17.91;87.08;92714.41;5029082;28;20226;-78
2022/06/12 06:28:56;;;;;;;12.00;11.20;;;;;;;17.87;89.16;92713.50;5029789;28;20241;-78
2022/06/12 06:31:23;;;;;;;12.33;11.53;;;;;;;17.56;88.79;92711.97;5028450;28;20227;-78
2022/06/12 06:33:49;;;;;;;12.73;11.90;;;;;;;17.72;89.01;92725.41;5028252;28;20255;-78
2022/06/12 06:36:18;;;;;;;11.63;10.93;;;;;;;17.30;91.50;92690.16;5027469;28;20229;-78
2022/06/12 06:38:45;;;;;;;12.70;11.80;;;;;;;17.55;91.78;92731.53;5027549;28;20195;-78
2022/06/12 06:41:12;;;;;;;13.20;12.20;;;;;;;17.58;92.04;92725.63;5029256;28;20241;-79
2022/06/12 06:46:23;;;;;;;14.00;12.80;;;;;;;17.22;94.51;92732.41;5029030;28;20261;-78
2022/06/12 06:48:49;;;;;;;13.10;12.00;;;;;;;17.35;93.34;92740.09;5029175;28;20215;-78
2022/06/12 06:51:14;;;;;;;15.60;14.43;;;;;;;17.24;93.52;92720.47;5027698;28;20248;-78
2022/06/12 06:53:40;;;;;;;15.93;14.73;;;;;;;17.37;93.22;92747.72;5029712;28;20221;-77
2022/06/12 06:56:06;;;;;;;15.27;14.13;;;;;;;17.29;93.79;92733.47;5028464;28;20226;-78
2022/06/12 06:58:32;;;;;;;14.20;13.13;;;;;;;17.31;94.34;92733.13;5030918;28;20221;-77
2022/06/12 07:00:58;;;;;;;15.00;13.80;;;;;;;17.69;93.45;92746.38;5029074;28;20230;-78
2022/06/12 07:03:24;;;;;;;15.10;13.53;;;;;;;17.90;92.99;92750.59;5027631;28;20239;-77
2022/06/12 07:05:51;;;;;;;14.60;13.43;;;;;;;18.09;91.47;92752.81;5029032;28;20237;-77
2022/06/12 07:08:17;;;;;;;13.40;12.30;;;;;;;18.02;90.76;92742.00;5029238;28;20243;-77
2022/06/12 07:10:44;;;;;;;13.90;12.80;;;;;;;18.26;90.43;92748.22;5028640;28;20254;-78
2022/06/12 07:13:11;;;;;;;13.63;12.63;;;;;;;18.20;90.50;92752.16;5028979;28;20777;-78
2022/06/12 07:15:37;;;;;;;12.57;11.73;;;;;;;18.19;90.71;92755.09;5029343;28;20765;-78
2022/06/12 07:18:04;;;;;;;12.17;11.37;;;;;;;18.11;91.39;92745.38;5028100;28;20179;-79
2022/06/12 07:20:35;;;;;;;12.67;11.77;;;;;;;18.00;92.28;92755.53;5028859;28;20202;-79
2022/06/12 07:23:03;;;;;;;12.73;11.87;;;;;;;17.92;93.31;92759.00;5026867;28;20190;-79
2022/06/12 07:25:30;;;;;;;11.90;11.10;;;;;;;18.23;92.74;92748.84;5028323;28;20191;-79
2022/06/12 07:27:55;;;;;;;12.70;11.83;;;;;;;18.24;94.28;92760.22;5027158;28;20212;-78
2022/06/12 07:30:22;;;;;;;11.90;11.00;;;;;;;17.78;96.69;92728.63;5029648;28;20204;-79
2022/06/12 07:32:48;;;;;;;12.47;11.67;;;;;;;18.13;93.21;92761.69;5028738;28;20180;-79
2022/06/12 07:35:14;;;;;;;12.93;12.03;;;;;;;17.48;91.58;92756.88;5038644;28;20179;-79
2022/06/12 07:37:40;;;;;;;12.87;12.00;;;;;;;17.67;96.27;92759.13;5028438;28;20187;-78
2022/06/12 07:40:09;;;;;;;13.07;12.13;;;;;;;17.53;97.94;92757.47;5029402;28;20187;-79
2022/06/12 07:42:35;;;;;;;12.87;11.63;;;;;;;17.02;90.77;92751.56;5028429;28;20215;-78
2022/06/12 07:45:00;;;;;;;11.70;11.10;;;;;;;17.19;92.36;92747.00;5029079;28;20195;-78
2022/06/12 07:47:27;;;;;;;12.33;11.50;;;;;;;17.40;94.37;92761.06;5028890;28;20211;-79
2022/06/12 07:49:53;;;;;;;14.23;13.13;;;;;;;17.48;97.20;92776.13;5026611;28;20185;-78
2022/06/12 07:52:19;;;;;;;13.90;12.90;;;;;;;17.13;96.97;92758.81;5032530;28;20219;-79
2022/06/12 07:54:45;;;;;;;15.27;14.27;;;;;;;17.41;98.94;92772.41;5032364;28;20194;-78
2022/06/12 07:57:10;;;;;;;13.80;12.70;;;;;;;17.41;100.00;92738.09;5032456;28;20227;-78
2022/06/12 07:59:36;;;;;;;13.07;12.27;;;;;;;17.68;100.00;92747.47;5033147;28;20235;-78
2022/06/12 08:02:02;;;;;;;13.23;12.20;;;;;;;17.58;99.43;92770.50;5032697;28;20247;-79
2022/06/12 08:04:28;;;;;;;12.23;11.43;;;;;;;17.91;97.38;92748.75;5031668;28;20246;-78
2022/06/12 08:06:53;;;;;;;13.53;12.53;;;;;;;17.99;96.46;92779.63;5031370;28;20235;-78
2022/06/12 08:09:19;;;;;;;12.83;11.93;;;;;;;17.87;97.94;92756.53;5032710;28;20261;-78
2022/06/12 08:11:49;;;;;;;14.63;13.57;;;;;;;18.18;95.68;92772.06;5030958;28;20216;-78
2022/06/12 08:14:16;;;;;;;12.93;12.03;;;;;;;17.88;95.54;92741.47;5031108;28;20240;-79
2022/06/12 08:16:42;;;;;;;12.93;11.93;;;;;;;17.62;95.38;92759.31;5030988;28;20239;-78
2022/06/12 08:20:24;;;;;;;13.60;12.70;;;;;;;17.90;97.81;92774.38;5031934;28;20238;-79
2022/06/12 08:21:56;;;;;;;14.80;12.67;;;;;;;18.19;94.91;92778.91;5031898;28;20230;-78
2022/06/12 08:24:22;;;;;;;12.70;11.90;;;;;;;17.95;95.74;92778.72;5033070;28;20203;-78
2022/06/12 08:26:47;;;;;;;13.30;12.33;;;;;;;18.13;95.50;92762.47;5031770;28;20257;-78
2022/06/12 08:29:13;;;;;;;13.73;12.60;;;;;;;18.42;94.71;92782.81;5032403;28;20220;-77
2022/06/12 08:31:46;;;;;;;13.20;12.30;;;;;;;17.74;94.14;92796.38;5030908;28;20224;-78
2022/06/12 08:34:22;;;;;;;13.10;12.20;;;;;;;17.68;96.56;92800.28;5031169;28;20189;-79
2022/06/12 08:36:58;;;;;;;13.87;12.90;;;;;;;18.21;94.69;92795.22;5031789;28;20233;-77
2022/06/12 08:39:23;;;;;;;13.83;12.93;;;;;;;17.76;100.00;92792.31;5030602;28;20218;-78
2022/06/12 08:42:04;;;;;;;13.30;12.40;;;;;;;17.56;100.00;92788.53;5030595;28;20218;-78
2022/06/12 08:44:37;;;;;;;13.70;12.50;;;;;;;17.77;100.00;92798.38;5031491;28;20180;-78
2022/06/12 08:47:11;;;;;;;13.00;12.20;;;;;;;18.42;96.38;92794.16;5030716;28;20243;-78
2022/06/12 08:49:48;;;;;;;12.00;11.10;;;;;;;18.57;94.84;92790.16;5028964;28;20214;-78
2022/06/12 08:52:31;;;;;;;13.43;12.20;;;;;;;18.93;93.54;92798.28;5031520;28;20227;-78
2022/06/12 08:55:25;;;;;;;13.17;12.37;;;;;;;18.18;93.74;92798.50;5031641;28;20208;-78
2022/06/12 08:58:10;;;;;;;13.00;12.10;;;;;;;19.11;91.70;92797.78;5030289;28;20276;-78
2022/06/12 09:00:39;;;;;;;12.17;11.13;;;;;;;19.13;88.24;92782.38;5030023;28;20301;-78
2022/06/12 09:03:07;;;;;;;12.53;11.63;;;;;;;18.74;90.96;92801.38;5030537;28;20189;-78
2022/06/12 09:05:51;;;;;;;12.47;11.57;;;;;;;19.54;89.27;92800.06;5031131;28;20200;-79
2022/06/12 09:08:22;;;;;;;14.97;13.13;;;;;;;19.48;88.89;92798.72;5030030;28;20252;-79
2022/06/12 09:11:15;;;;;;;12.67;11.57;;;;;;;19.35;89.70;92796.38;5030948;28;20242;-78
2022/06/12 09:14:08;;;;;;;11.57;10.80;;;;;;;19.07;90.56;92799.56;5030318;28;20227;-78
2022/06/12 09:16:49;;;;;;;12.83;11.93;;;;;;;18.79;91.40;92795.91;5030498;28;20217;-78
2022/06/12 09:19:17;;;;;;;11.60;10.80;;;;;;;18.75;90.19;92796.88;5029731;28;20208;-78
2022/06/12 09:22:02;;;;;;;11.70;10.63;;;;;;;19.08;89.63;92781.81;5029851;28;20224;-78
2022/06/12 09:24:52;;;;;;;11.80;10.93;;;;;;;18.78;91.44;92781.16;5029928;28;20247;-78
2022/06/12 09:27:46;;;;;;;11.70;11.00;;;;;;;18.91;88.58;92800.50;5029094;28;20229;-78
2022/06/12 09:30:20;;;;;;;12.83;11.83;;;;;;;19.18;88.13;92805.22;5031888;28;20195;-78
2022/06/12 09:32:57;;;;;;;11.83;11.13;;;;;;;19.50;83.29;92811.63;5030147;28;20209;-79
2022/06/12 09:35:52;;;;;;;11.80;11.10;;;;;;;19.99;82.57;92808.72;5029636;28;20204;-79
2022/06/12 09:38:24;;;;;;;12.20;11.40;;;;;;;20.19;82.75;92822.97;5029172;28;20212;-79
2022/06/12 09:40:55;;;;;;;11.93;11.02;;;;;;;20.53;81.44;92820.63;5030368;28;20247;-78
2022/06/12 09:43:58;;;;;;;11.57;10.77;;;;;;;20.36;82.68;92822.75;5030495;28;20200;-78
2022/06/12 09:46:42;;;;;;;10.70;10.10;;;;;;;20.26;83.46;92826.66;5030759;28;20229;-78
2022/06/12 09:49:38;;;;;;;11.30;10.60;;;;;;;19.29;84.85;92806.38;5027383;28;20227;-79
2022/06/12 09:52:42;;;;;;;11.67;10.87;;;;;;;19.19;87.38;92812.06;5030169;28;20248;-78
2022/06/12 09:55:46;;;;;;;11.40;10.70;;;;;;;18.69;90.09;92811.41;4992029;28;20307;-79
2022/06/12 09:58:20;;;;;;;11.20;10.50;;;;;;;18.46;89.37;92816.22;5029408;28;20239;-79
2022/06/12 10:00:53;;;;;;;12.03;11.33;;;;;;;18.50;92.35;92816.34;5029698;28;20236;-78
2022/06/12 10:03:24;;;;;;;12.87;12.00;;;;;;;18.87;91.91;92799.56;5029193;28;20191;-78
2022/06/12 10:05:56;;;;;;;12.40;11.70;;;;;;;18.08;93.06;92812.84;5029151;28;20224;-79
2022/06/12 10:08:38;;;;;;;11.73;10.93;;;;;;;18.02;96.30;92797.50;5030157;28;20235;-78
2022/06/12 10:11:13;;;;;;;12.37;11.53;;;;;;;17.98;94.15;92799.22;5027549;28;20222;-79
2022/06/12 10:14:02;;;;;;;12.73;11.83;;;;;;;18.05;94.70;92805.56;5028745;28;20782;-79
2022/06/12 10:16:37;;;;;;;12.43;11.23;;;;;;;17.57;94.81;92778.75;5028373;28;20215;-79
2022/06/12 10:19:10;;;;;;;12.23;11.53;;;;;;;17.72;94.03;92803.84;5030229;28;20218;-79
2022/06/12 10:21:40;;;;;;;13.40;12.50;;;;;;;18.05;100.00;92794.22;5030083;28;20719;-79
2022/06/12 10:24:07;;;;;;;12.67;11.87;;;;;;;18.67;93.84;92805.66;5028876;28;20208;-79
2022/06/12 10:26:33;;;;;;;12.57;11.77;;;;;;;18.91;93.79;92800.50;5029845;28;20241;-78
2022/06/12 10:29:05;;;;;;;12.17;11.30;;;;;;;18.38;86.81;92795.88;5029370;28;20211;-78
2022/06/12 10:31:34;;;;;;;11.77;11.07;;;;;;;18.21;95.25;92777.47;5029294;28;20242;-79
2022/06/12 10:34:31;;;;;;;12.00;11.27;;;;;;;18.82;91.50;92800.56;5029278;28;20220;-79
2022/06/12 10:37:10;;;;;;;12.87;11.73;;;;;;;18.21;93.11;92779.34;5029332;28;20226;-79
2022/06/12 10:39:35;;;;;;;11.67;10.97;;;;;;;18.47;90.06;92804.56;5029689;28;20204;-79
2022/06/12 10:42:04;;;;;;;11.40;10.70;;;;;;;18.47;90.77;92795.84;5029355;28;20219;-79
2022/06/12 10:44:41;;;;;;;11.87;11.03;;;;;;;18.67;91.62;92789.78;5028739;28;20216;-79
2022/06/12 10:47:22;;;;;;;12.37;11.57;;;;;;;19.07;87.73;92793.47;5029721;28;20787;-79
2022/06/12 10:50:01;;;;;;;12.20;11.40;;;;;;;19.65;87.33;92797.75;5028404;28;20221;-78
2022/06/12 10:52:27;;;;;;;11.80;11.00;;;;;;;19.41;84.58;92795.81;5028386;28;20226;-78
2022/06/12 10:54:52;;;;;;;12.07;11.27;;;;;;;19.73;84.57;92779.13;5029582;28;20228;-79
2022/06/12 10:57:36;;;;;;;11.17;10.17;;;;;;;20.29;83.36;92799.47;5028943;28;20240;-79
2022/06/12 11:00:05;;;;;;;11.30;10.53;;;;;;;20.64;82.02;92797.84;5030173;28;20291;-79
2022/06/12 11:02:36;;;;;;;10.90;10.00;;;;;;;20.78;79.10;92802.78;5029110;28;20261;-79
2022/06/12 11:05:08;;;;;;;10.13;9.63;;;;;;;20.03;80.65;92801.63;5028538;28;20189;-79
2022/06/12 11:07:49;;;;;;;11.00;10.40;;;;;;;20.60;80.82;92790.91;5027279;28;20264;-79
2022/06/12 11:10:21;;;;;;;11.27;10.68;;;;;;;21.02;78.23;92786.03;5027806;28;20189;-79
2022/06/12 11:13:07;;;;;;;10.50;9.90;;;;;;;20.93;76.27;92785.38;5026873;28;20202;-79
2022/06/12 11:15:54;;;;;;;10.45;9.85;;;;;;;21.79;73.52;92796.09;5027449;28;20204;-79
2022/06/12 11:18:37;;;;;;;10.63;10.05;;;;;;;21.72;72.59;92795.88;5028701;28;20691;-79
2022/06/12 11:21:37;;;;;;;10.45;9.88;;;;;;;21.14;71.19;92796.59;5027604;28;20237;-79
2022/06/12 11:24:18;;;;;;;10.63;9.93;;;;;;;21.83;74.13;92796.94;5023762;28;20221;-79
2022/06/12 11:27:17;;;;;;;10.90;10.18;;;;;;;21.94;70.28;92795.31;5033054;28;20222;-79
2022/06/12 11:29:49;;;;;;;10.95;10.25;;;;;;;21.35;71.62;92795.31;5031964;28;20229;-79
2022/06/12 11:32:21;;;;;;;11.82;11.02;;;;;;;22.46;70.77;92795.00;5032560;28;20815;-79
2022/06/12 11:35:46;;;;;;;10.77;10.18;;;;;;;22.15;70.69;92799.25;5032205;28;20200;-78
2022/06/12 11:38:32;;;;;;;11.25;10.55;;;;;;;22.36;70.11;92806.16;4970957;28;20237;-79
2022/06/12 11:41:27;;;;;;;10.32;9.63;;;;;;;22.59;71.50;92793.78;5032912;28;20260;-79
2022/06/12 11:44:04;;;;;;;10.75;10.15;;;;;;;22.11;69.18;92789.66;5031740;28;20879;-79
2022/06/12 11:46:48;;;;;;;10.30;9.68;;;;;;;20.32;71.41;92798.81;5031353;28;20275;-79
2022/06/12 11:49:42;;;;;;;10.60;10.10;;;;;;;21.63;69.97;92789.97;5031519;28;20235;-79
2022/06/12 11:52:26;;;;;;;12.18;11.05;;;;;;;22.61;69.92;92792.34;5029437;28;20235;-79
2022/06/12 11:55:14;;;;;;;11.18;10.48;;;;;;;23.00;68.85;92791.25;5032883;28;20180;-79
2022/06/12 11:57:42;;;;;;;11.02;10.32;;;;;;;23.20;65.02;92797.34;5031967;28;20218;-78